WetterOnline ( http://www.wetteronline.de )

Wetter aktuell Cottbus

Aktuelles Wetter: Cottbus (70m)

6-stündlich | Neueste Meldungen
Ortszeit Temperatur Wetter
Do, 16.08. 20:00 27.4° C leicht bewölkt
Do, 16.08. 14:00 27.2° C wolkenlos
Do, 16.08. 8:00 18.6° C fast wolkenlos
Do, 16.08. 2:00 15.8° C bewölkt
Mi, 15.08. 20:00 23.4° C bewölkt
Mi, 15.08. 14:00 24.0° C wolkig
Mi, 15.08. 8:00 17.8° C bedeckt
Mi, 15.08. 2:00 19.0° C bewölkt
Ortszeit Temperatur Wetter
Do, 16.08. 23:00 23.2° C leicht bewölkt
Do, 16.08. 22:50 23.2° C leicht bewölkt
Do, 16.08. 22:40 23.3° C leicht bewölkt
Do, 16.08. 22:30 23.8° C bedeckt
Do, 16.08. 22:20 23.8° C bedeckt
Do, 16.08. 22:10 23.8° C leicht bewölkt
Do, 16.08. 22:00 24.1° C leicht bewölkt
Do, 16.08. 21:30 24.9° C leicht bewölkt
Do, 16.08. 21:00 25.1° C leicht bewölkt
Do, 16.08. 20:30 25.8° C leicht bewölkt
Do, 16.08. 20:00 27.4° C leicht bewölkt
Ortszeit Relative Feuchte Sichtweite
Do, 16.08. 20:00 35% 40 km
Do, 16.08. 14:00 35% 35 km
Do, 16.08. 8:00 65% 24 km
Do, 16.08. 2:00 83% 35 km
Mi, 15.08. 20:00 47% 60 km
Mi, 15.08. 14:00 43% 40 km
Mi, 15.08. 8:00 74% 50 km
Mi, 15.08. 2:00 75% 50 km
Ortszeit Relative Feuchte Sichtweite
Do, 16.08. 23:00 42% 50 km
Do, 16.08. 22:50 42% -
Do, 16.08. 22:40 42% -
Do, 16.08. 22:30 41% 45 km
Do, 16.08. 22:20 41% -
Do, 16.08. 22:10 41% -
Do, 16.08. 22:00 40% 50 km
Do, 16.08. 21:30 39% 40 km
Do, 16.08. 21:00 40% 45 km
Do, 16.08. 20:30 39% 35 km
Do, 16.08. 20:00 35% 40 km
Ortszeit Niederschlagsmenge Niederschlagsart
Do, 16.08. 20:00 0.0 l/m2 in 12 Std. -
Do, 16.08. 14:00 0.0 l/m2 in 6 Std. -
Do, 16.08. 8:00 0.0 l/m2 in 12 Std. -
Do, 16.08. 2:00 0.0 l/m2 in 6 Std. -
Mi, 15.08. 20:00 0.0 l/m2 in 12 Std. -
Mi, 15.08. 14:00 0.0 l/m2 in 6 Std. -
Mi, 15.08. 8:00 0.1 l/m2 in 12 Std. -
Mi, 15.08. 2:00 0.1 l/m2 in 6 Std. Sprühregen
Ortszeit Niederschlagsmenge Niederschlagsart
Do, 16.08. 23:00 0.0 l/m2 in 1 Std. -
Do, 16.08. 22:50 keine Meldung -
Do, 16.08. 22:40 keine Meldung -
Do, 16.08. 22:30 0.0 l/m2 in 1 Std. -
Do, 16.08. 22:20 keine Meldung -
Do, 16.08. 22:10 keine Meldung -
Do, 16.08. 22:00 0.0 l/m2 in 1 Std. -
Do, 16.08. 21:30 0.0 l/m2 in 1 Std. -
Do, 16.08. 21:00 0.0 l/m2 in 1 Std. -
Do, 16.08. 20:30 0.0 l/m2 in 1 Std. -
Do, 16.08. 20:00 0.0 l/m2 in 1 Std. -
Ortszeit Stärke Spitze Richtung
km/h Bft. km/h Grad Sektor
Do, 16.08. 20:00 7 2 22 100° O
Do, 16.08. 14:00 6 1 20 260° W
Do, 16.08. 8:00 0 0 7 - -
Do, 16.08. 2:00 4 1 7 40° NO
Mi, 15.08. 20:00 4 1 32 340° N
Mi, 15.08. 14:00 14 3 32 300° NW
Mi, 15.08. 8:00 9 2 26 260° W
Mi, 15.08. 2:00 9 2 39 260° W
Ortszeit Stärke Spitze Richtung
km/h Bft. km/h Grad Sektor
Do, 16.08. 23:00 11 2 22 110° O
Do, 16.08. 22:50 11 2 - 110° O
Do, 16.08. 22:40 11 2 - 110° O
Do, 16.08. 22:30 11 2 22 110° O
Do, 16.08. 22:20 11 2 - 110° O
Do, 16.08. 22:10 11 2 - 110° O
Do, 16.08. 22:00 9 2 19 100° O
Do, 16.08. 21:30 9 2 19 100° O
Do, 16.08. 21:00 9 2 15 100° O
Do, 16.08. 20:30 7 2 11 110° O
Do, 16.08. 20:00 7 2 14 100° O
Ortszeit Untergrenze Bedeckung Gattung
total tief tief mittel hoch
Do, 16.08. 20:00 2400 m 4/8 1/8 - - -
Do, 16.08. 14:00 1800 m 0/8 0/8 - - -
Do, 16.08. 8:00 2100 m 1/8 1/8 - - -
Do, 16.08. 2:00 2100 m 7/8 7/8 - - -
Mi, 15.08. 20:00 2100 m 8/8 7/8 - - -
Mi, 15.08. 14:00 - 8/8 - - - -
Mi, 15.08. 8:00 510 m 8/8 8/8 - - -
Mi, 15.08. 2:00 2100 m 7/8 7/8 - - -
Ortszeit Bedeckungsgrad in Achtel und Wolkenuntergrenze
Do, 16.08. 23:00 1(3000m)
Do, 16.08. 22:50 1(3000m) 2(3900m)
Do, 16.08. 22:40 1(3000m) 2(3900m)
Do, 16.08. 22:30 1(3000m) 3(3900m) 9
Do, 16.08. 22:20 9 9 9
Do, 16.08. 22:10 1(3000m) 2(3900m)
Do, 16.08. 22:00 1(3000m) 2(3900m)
Do, 16.08. 21:30 1(3000m) 2(3600m)
Do, 16.08. 21:00 1(2700m) 9 9
Do, 16.08. 20:30 1(2400m) 3(12000m)
Do, 16.08. 20:00 1(2400m) 4(12000m)
Ortszeit Luftdruck NN (hPa) Tendenz (hPa in 3 Std.)
Do, 16.08. 20:00 1015 - 0,8
Do, 16.08. 14:00 1017 - 1,4
Do, 16.08. 8:00 1019 + 0,2
Do, 16.08. 2:00 1020 + 0,4
Mi, 15.08. 20:00 1018 + 0,1
Mi, 15.08. 14:00 1018 0,0
Mi, 15.08. 8:00 1017 + 1,5
Mi, 15.08. 2:00 1015 + 0,7
Ortszeit Luftdruck NN (hPa) Tendenz (hPa in 3 Std.)
Do, 16.08. 23:00 1015 + 0,2
Do, 16.08. 22:50 1015 keine Meldung
Do, 16.08. 22:40 1015 keine Meldung
Do, 16.08. 22:30 1015 + 0,1
Do, 16.08. 22:20 1015 keine Meldung
Do, 16.08. 22:10 1015 keine Meldung
Do, 16.08. 22:00 1015 0,0
Do, 16.08. 21:30 1015 - 0,1
Do, 16.08. 21:00 1015 - 0,3
Do, 16.08. 20:30 1015 - 0,6
Do, 16.08. 20:00 1015 - 0,8
Ortszeit Schneehöhe (cm)
Do, 16.08. 20:00 -
Do, 16.08. 14:00 -
Do, 16.08. 8:00 -
Do, 16.08. 2:00 -
Mi, 15.08. 20:00 -
Mi, 15.08. 14:00 -
Mi, 15.08. 8:00 -
Mi, 15.08. 2:00 -
Ortszeit Schneehöhe (cm)
Do, 16.08. 23:00 -
Do, 16.08. 22:50 -
Do, 16.08. 22:40 -
Do, 16.08. 22:30 -
Do, 16.08. 22:20 -
Do, 16.08. 22:10 -
Do, 16.08. 22:00 -
Do, 16.08. 21:30 -
Do, 16.08. 21:00 -
Do, 16.08. 20:30 -
Do, 16.08. 20:00 -
Link zu dieser Seite / Seite empfehlen

Das Wetter in ...